Home
 
Morpeth (BP) AWS
Home
Latest Observations
 
Search
 
 
Information
  • Contact
  • Copyright Notice
  • Disclaimer
  • Morpeth (Berry Park), NSW
    Automatic Weather Station
    Latitude: 32°44'SLongitude: 151°40'EElevation: 8.0m

    Last update 11:03pm local on Tuesday 19 February 2019

    Date/Time
    EST
    Temp Dew
    Point
    Rel
    Hum
    Max
    Temp
    MaxT
    Time
    Min
    Temp
    MinT
    Time
    Wind Max Wind Gust Rain
    since 9am
    Wind Dir Speed Gust Max
    Dir
    Max Max
    Time
    °C °C % °C   °C   kts kts kts mm
    19-Feb 23:00 23.0 20.4 85 39.6 13:50 22.9 22:59 0.0
    19-Feb 22:00 23.6 20.9 85 39.6 13:50 23.5 18:16 0.0
    19-Feb 21:00 23.8 21.2 86 39.6 13:50 23.5 18:16 0.0
    19-Feb 20:00 23.9 21.2 85 39.6 13:50 23.5 18:16 0.0
    19-Feb 19:00 24.3 21.7 86 39.6 13:50 23.5 18:16 0.0
    19-Feb 18:00 23.9 21.3 85 39.6 13:50 23.8 18:00 0.0
    19-Feb 17:00 27.5 20.1 64 39.6 13:50 26.0 09:05 0.0
    19-Feb 16:00 29.6 19.3 54 39.6 13:50 26.0 09:05 0.0
    19-Feb 15:00 32.5 16.4 38 39.6 13:50 26.0 09:05 0.0
    19-Feb 14:00 37.6 15.8 28 39.6 13:50 26.0 09:05 0.0
    19-Feb 13:00 38.0 10.9 20 38.0 12:57 26.0 09:05 0.0
    19-Feb 12:00 34.3 13.2 28 34.4 11:55 26.0 09:05 0.0
    19-Feb 11:00 31.6 13.9 34 31.4 10:59 26.0 09:05 0.0
    19-Feb 10:00 28.2 16.6 49 28.2 09:59 26.0 09:05 0.0
    19-Feb 09:00 26.4 17.8 59 38.4 15:29 19.3 04:56 0.0
    19-Feb 08:00 22.5 18.1 76 38.4 15:29 19.3 04:56 0.0
    19-Feb 07:00 21.5 17.8 80 38.4 15:29 19.3 04:56 0.0
    19-Feb 06:00 20.4 17.6 84 38.4 15:29 19.3 04:56 0.0
    19-Feb 05:00 19.6 17.3 86 38.4 15:29 19.3 04:56 0.0
    19-Feb 04:00 20.4 17.2 82 38.4 15:29 20.2 03:35 0.0
    19-Feb 03:00 21.5 17.6 78 38.4 15:29 20.8 01:40 0.0
    19-Feb 02:00 21.3 17.3 78 38.4 15:29 20.8 01:40 0.0
    19-Feb 01:00 21.6 17.3 76 38.4 15:29 21.5 00:55 0.0
    19-Feb 00:00 23.0 17.1 70 38.4 15:29 22.0 09:00 0.0
    18-Feb 23:00 23.8 17.0 66 38.4 15:29 22.0 09:00 0.0
    18-Feb 22:00 25.0 16.5 59 38.4 15:29 22.0 09:00 0.0
    18-Feb 21:00 26.4 16.3 54 38.4 15:29 22.0 09:00 0.0
    18-Feb 20:00 28.5 14.7 43 38.4 15:29 22.0 09:00 0.0
    18-Feb 19:00 31.9 15.3 37 38.4 15:29 22.0 09:00 0.0
    18-Feb 18:00 33.8 14.7 32 38.4 15:29 22.0 09:00 0.0
    18-Feb 17:00 36.0 14.6 28 38.4 15:29 22.0 09:00 0.0
    18-Feb 16:00 37.2 13.8 25 38.4 15:29 22.0 09:00 0.0
    18-Feb 15:00 36.9 4.0 13 37.6 14:44 22.0 09:00 0.0
    18-Feb 14:00 35.5 8.1 19 36.1 13:53 22.0 09:00 0.0
    18-Feb 13:00 33.5 11.2 26 33.9 12:51 22.0 09:00 0.0
    18-Feb 12:00 30.8 14.1 36 31.2 11:42 22.0 09:00 0.0
    18-Feb 11:00 28.1 16.6 50 28.1 10:59 22.0 09:00 0.0
    18-Feb 10:00 25.0 17.0 61 25.0 09:59 22.0 09:00 0.0
    18-Feb 09:00 22.1 17.6 76 35.0 15:25 14.8 06:56 0.0
    18-Feb 08:00 18.5 17.3 93 35.0 15:25 14.8 07:01 0.0
    18-Feb 07:00 14.9 13.9 94 35.0 15:25 14.8 06:56 0.0
    18-Feb 06:00 17.7 16.0 90 35.0 15:25 17.6 06:00 0.0
    18-Feb 05:00 18.1 16.2 89 35.0 15:25 18.0 04:59 0.0
    18-Feb 04:00 18.6 16.5 88 35.0 15:25 18.4 03:55 0.0
    18-Feb 03:00 18.8 16.4 86 35.0 15:25 18.7 03:00 0.0
    18-Feb 02:00 19.3 16.4 83 35.0 15:25 19.2 02:00 0.0
    18-Feb 01:00 20.0 16.5 80 35.0 15:25 19.8 00:57 0.0
    18-Feb 00:00 21.0 16.3 75 35.0 15:25 20.7 09:00 0.0
    17-Feb 23:00 22.5 16.5 69 35.0 15:25 20.7 09:00 0.0
    17-Feb 22:00 22.5 16.0 67 35.0 15:25 20.7 09:00 0.0
    17-Feb 21:00 24.3 16.4 61 35.0 15:25 20.7 09:00 0.0
    17-Feb 20:00 26.3 15.6 52 35.0 15:25 20.7 09:00 0.0
    17-Feb 19:00 28.5 16.3 48 35.0 15:25 20.7 09:00 0.0
    17-Feb 18:00 31.2 15.6 39 35.0 15:25 20.7 09:00 0.0
    17-Feb 17:00 33.5 13.5 30 35.0 15:25 20.7 09:00 0.0
    17-Feb 16:00 34.4 12.4 27 35.0 15:25 20.7 09:00 0.0
    17-Feb 15:00 34.2 12.6 27 34.2 14:35 20.7 09:00 0.0
    17-Feb 14:00 32.0 11.1 28 32.5 13:55 20.7 09:00 0.0
    17-Feb 13:00 30.4 13.2 35 30.4 12:58 20.7 09:00 0.0
    17-Feb 12:00 29.0 14.4 41 29.0 11:59 20.7 09:00 0.0
    17-Feb 11:00 26.1 15.3 51 26.1 10:58 20.7 09:00 0.0
    17-Feb 10:00 23.9 15.5 60 23.9 09:59 20.7 09:00 0.0
    17-Feb 09:00 20.8 16.2 75 31.5 15:07 13.8 06:59 0.0
    17-Feb 08:00 17.1 15.8 92 31.5 15:07 13.8 06:59 0.0
    17-Feb 07:00 13.9 12.3 90 31.5 15:07 13.8 06:59 0.0
    17-Feb 06:00 16.7 14.7 88 31.5 15:07 16.5 05:50 0.0
    17-Feb 05:00 16.9 14.8 88 31.5 15:07 16.7 04:07 0.0
    17-Feb 04:00 16.9 14.7 87 31.5 15:07 16.8 04:00 0.0
    17-Feb 03:00 17.8 15.2 85 31.5 15:07 17.3 02:31 0.0
    17-Feb 02:00 18.0 15.4 85 31.5 15:07 17.9 01:59 0.0
    17-Feb 01:00 18.8 15.5 81 31.5 15:07 18.7 00:56 0.0
    17-Feb 00:00 19.4 15.5 78 31.5 15:07 19.1 23:43 0.0

    Tuesday, 19 February 2019
    © 2019 Tim Grugeon